Time;durP1;ratioP1;P1;durP2;ratioP2;P2;SDS_P1;SDS_P2;PMS_P1;PMS_P2;Temp;Humidity;BMP_temperature;BMP_pressure;BME280_temperature;BME280_humidity;BME280_pressure;Samples;Min_cycle;Max_cycle;Signal;HPM_P1;HPM_P2
2023/01/04 00:00:42;;;;;;;10.43;6.70;;;8.50;97.00;;;;;;20921222;28;20241;-75
2023/01/04 00:10:44;;;;;;;8.80;6.27;;;8.40;97.20;;;;;;20920174;28;20204;-75
2023/01/04 00:20:46;;;;;;;9.03;5.80;;;8.20;97.30;;;;;;20918932;28;20592;-75
2023/01/04 00:30:47;;;;;;;8.73;5.60;;;8.10;97.30;;;;;;20917841;28;20267;-75
2023/01/04 00:40:49;;;;;;;7.97;5.60;;;7.90;97.30;;;;;;20917796;28;20247;-75
2023/01/04 00:50:51;;;;;;;8.83;5.43;;;7.70;97.30;;;;;;20917105;28;20208;-75
2023/01/04 01:00:52;;;;;;;8.00;5.67;;;7.60;97.40;;;;;;20916656;28;20753;-75
2023/01/04 01:10:54;;;;;;;10.20;6.20;;;7.50;97.50;;;;;;20915548;28;20210;-77
2023/01/04 01:20:56;;;;;;;11.00;6.10;;;7.40;97.60;;;;;;20914704;28;20287;-77
2023/01/04 01:31:00;;;;;;;8.50;6.07;;;7.40;97.60;;;;;;20914261;28;20206;-77
2023/01/04 01:41:20;;;;;;;8.47;5.70;;;7.20;97.50;;;;;;20912302;28;20594;-77
2023/01/04 01:51:22;;;;;;;8.27;5.97;;;7.10;97.50;;;;;;20912913;28;20203;-75
2023/01/04 02:01:24;;;;;;;10.63;6.40;;;7.00;97.50;;;;;;20912816;28;20237;-76
2023/01/04 02:11:27;;;;;;;9.13;6.60;;;6.90;97.50;;;;;;20911819;28;20265;-76
2023/01/04 02:21:53;;;;;;;11.00;6.67;;;6.90;97.60;;;;;;20910397;28;20239;-77
2023/01/04 02:32:05;;;;;;;12.00;7.93;;;6.90;97.70;;;;;;20911853;28;20209;-76
2023/01/04 02:44:51;;;;;;;10.77;8.37;;;6.70;97.40;;;;;;20911826;28;20243;-76
2023/01/04 02:52:51;;;;;;;11.27;8.07;;;6.70;97.70;;;;;;20924876;28;20210;-76
2023/01/04 03:13:41;;;;;;;13.17;8.60;;;6.70;97.80;;;;;;20925119;28;20265;-75
2023/01/04 03:55:12;;;;;;;11.83;8.50;;;6.50;97.90;;;;;;20921533;28;20213;-74
2023/01/04 04:15:38;;;;;;;10.70;7.77;;;6.70;98.50;;;;;;20920357;28;20275;-74
2023/01/04 04:25:40;;;;;;;10.50;7.67;;;7.00;98.60;;;;;;20919438;28;20242;-74
2023/01/04 04:35:42;;;;;;;9.13;6.90;;;7.10;98.40;;;;;;20918581;28;20229;-73
2023/01/04 04:45:43;;;;;;;9.43;6.50;;;7.20;98.60;;;;;;20917999;28;20287;-77
2023/01/04 04:55:45;;;;;;;9.03;5.93;;;7.40;98.70;;;;;;20917027;28;20648;-76
2023/01/04 05:05:47;;;;;;;7.13;4.40;;;7.60;98.70;;;;;;20915864;28;20242;-77
2023/01/04 05:15:51;;;;;;;7.67;4.53;;;7.70;98.80;;;;;;20914570;28;20214;-77
2023/01/04 05:25:57;;;;;;;5.60;4.30;;;8.00;98.60;;;;;;20914045;28;20297;-75
2023/01/04 05:36:02;;;;;;;5.63;4.27;;;8.00;98.20;;;;;;20912083;28;20254;-77
2023/01/04 05:46:04;;;;;;;6.43;4.20;;;8.10;98.20;;;;;;20912966;28;20243;-75
2023/01/04 05:56:07;;;;;;;9.23;4.27;;;8.10;97.90;;;;;;20912768;28;20211;-75
2023/01/04 06:06:09;;;;;;;8.77;4.30;;;8.20;97.90;;;;;;20911840;28;20234;-76
2023/01/04 06:16:10;;;;;;;4.93;3.73;;;8.30;97.70;;;;;;20912090;28;20208;-76
2023/01/04 06:26:12;;;;;;;5.23;3.60;;;8.30;97.60;;;;;;20923630;28;20300;-77
2023/01/04 06:36:14;;;;;;;4.73;3.60;;;8.30;97.60;;;;;;20927773;28;20243;-75
2023/01/04 06:46:20;;;;;;;5.40;3.27;;;8.30;97.30;;;;;;20926863;28;20247;-76
2023/01/04 06:56:22;;;;;;;5.00;3.40;;;8.40;97.30;;;;;;20926065;28;20209;-73
2023/01/04 07:06:24;;;;;;;5.80;3.20;;;8.30;97.10;;;;;;20923218;28;20284;-72
2023/01/04 07:16:26;;;;;;;5.23;3.47;;;8.40;97.20;;;;;;20923231;28;20207;-73
2023/01/04 07:26:27;;;;;;;4.90;3.30;;;8.40;97.00;;;;;;20921762;28;20231;-77
2023/01/04 07:36:29;;;;;;;4.23;3.07;;;8.40;96.90;;;;;;20920611;28;20710;-76
2023/01/04 07:46:32;;;;;;;5.10;2.90;;;8.40;96.80;;;;;;20921811;28;20276;-74
2023/01/04 07:56:34;;;;;;;4.07;2.90;;;8.40;96.70;;;;;;20842193;28;20739;-72
2023/01/04 08:06:37;;;;;;;7.77;2.60;;;8.40;96.50;;;;;;20837602;28;20282;-71
2023/01/04 08:16:41;;;;;;;2.90;2.30;;;8.40;96.10;;;;;;20834706;28;20242;-73
2023/01/04 08:26:43;;;;;;;2.70;2.00;;;8.40;95.70;;;;;;20835370;28;20236;-72
2023/01/04 08:36:47;;;;;;;2.60;2.00;;;8.40;96.00;;;;;;20833881;28;20326;-72
2023/01/04 08:46:51;;;;;;;3.07;1.80;;;8.50;96.00;;;;;;20832622;28;20289;-72
2023/01/04 08:56:52;;;;;;;3.43;2.10;;;8.60;95.90;;;;;;20881710;28;20439;-72
2023/01/04 09:06:54;;;;;;;3.00;1.87;;;9.00;95.80;;;;;;20914690;28;20247;-72
2023/01/04 09:16:56;;;;;;;3.13;1.90;;;8.70;95.90;;;;;;20914966;28;20200;-73
2023/01/04 09:26:58;;;;;;;4.07;2.10;;;8.80;95.70;;;;;;20913789;28;20236;-76
2023/01/04 09:36:59;;;;;;;1.73;1.60;;;8.80;95.90;;;;;;20912958;28;20290;-78
2023/01/04 09:47:14;;;;;;;2.90;1.60;;;8.90;95.80;;;;;;20912575;28;20233;-73
2023/01/04 09:57:22;;;;;;;4.83;1.83;;;8.90;96.10;;;;;;20911209;28;20213;-73
2023/01/04 10:07:30;;;;;;;3.97;1.53;;;9.00;95.90;;;;;;20911653;28;20315;-73
2023/01/04 10:17:56;;;;;;;2.37;1.70;;;9.10;96.30;;;;;;20911079;28;20651;-73
2023/01/04 10:28:21;;;;;;;2.27;1.20;;;9.20;96.60;;;;;;20911626;28;20327;-76
2023/01/04 10:38:25;;;;;;;2.67;1.47;;;9.20;96.70;;;;;;20912871;28;20274;-73
2023/01/04 10:48:48;;;;;;;20.10;11.90;;;9.30;96.90;;;;;;20909310;28;20240;-74
2023/01/04 10:59:08;;;;;;;5.73;2.57;;;9.50;96.90;;;;;;20909483;28;20206;-72
2023/01/04 11:09:17;;;;;;;2.70;1.67;;;9.50;97.10;;;;;;20915447;28;20216;-72
2023/01/04 11:19:28;;;;;;;3.37;1.30;;;9.70;96.70;;;;;;20923873;28;20325;-69
2023/01/04 11:29:44;;;;;;;1.80;1.20;;;9.80;96.60;;;;;;20923377;28;20660;-72
2023/01/04 11:39:46;;;;;;;3.17;1.47;;;9.80;96.90;;;;;;20922214;28;20353;-71
2023/01/04 11:49:48;;;;;;;4.33;1.50;;;9.90;97.10;;;;;;20921035;28;20223;-74
2023/01/04 12:00:12;;;;;;;1.77;1.47;;;9.80;97.30;;;;;;20919638;28;20248;-70
2023/01/04 12:10:24;;;;;;;5.87;1.83;;;9.80;97.80;;;;;;20919946;28;20205;-69
2023/01/04 12:20:28;;;;;;;3.10;1.70;;;9.80;98.10;;;;;;20915604;28;20232;-72
2023/01/04 12:30:43;;;;;;;2.60;1.77;;;9.90;98.40;;;;;;20918437;28;20265;-69
2023/01/04 12:40:45;;;;;;;2.90;1.70;;;9.90;98.60;;;;;;20918075;28;20254;-70
2023/01/04 12:51:16;;;;;;;3.17;1.77;;;9.90;98.80;;;;;;20916719;28;20206;-69
2023/01/04 13:01:33;;;;;;;2.00;1.70;;;9.90;99.20;;;;;;20916682;28;20231;-68
2023/01/04 13:11:54;;;;;;;3.30;2.40;;;10.00;98.90;;;;;;20915115;28;20688;-69
2023/01/04 13:21:58;;;;;;;3.30;2.17;;;10.10;99.10;;;;;;20914244;28;20281;-67
2023/01/04 13:32:03;;;;;;;3.90;2.23;;;10.10;99.20;;;;;;20912629;28;20213;-70
2023/01/04 13:42:11;;;;;;;3.23;2.43;;;10.20;99.20;;;;;;20912925;28;20253;-70
2023/01/04 13:52:27;;;;;;;2.57;2.37;;;10.20;99.10;;;;;;20912064;28;20204;-72
2023/01/04 14:03:09;;;;;;;7.70;2.77;;;10.20;99.60;;;;;;20913493;28;20645;-83
2023/01/04 14:13:18;;;;;;;4.67;2.90;;;10.30;99.90;;;;;;20911979;28;20293;-72
2023/01/04 14:23:32;;;;;;;3.57;2.93;;;10.30;99.90;;;;;;20911602;28;20290;-78
2023/01/04 14:33:39;;;;;;;3.60;2.90;;;10.30;99.90;;;;;;20911655;28;20292;-76
2023/01/04 14:43:52;;;;;;;2.97;2.30;;;10.30;99.90;;;;;;20918555;28;20233;-72
2023/01/04 14:53:54;;;;;;;5.87;2.60;;;10.30;99.90;;;;;;20926302;28;20214;-80
2023/01/04 15:03:56;;;;;;;3.80;2.50;;;10.20;99.90;;;;;;20925350;28;20719;-70
2023/01/04 15:13:57;;;;;;;3.27;1.97;;;10.20;99.90;;;;;;20924443;28;20212;-69
2023/01/04 15:23:59;;;;;;;2.40;1.70;;;10.10;99.90;;;;;;20923378;28;20235;-74
2023/01/04 15:34:01;;;;;;;1.60;1.50;;;10.20;99.90;;;;;;20922953;28;20266;-74
2023/01/04 15:44:03;;;;;;;2.00;1.63;;;10.10;99.90;;;;;;20922261;28;20241;-67
2023/01/04 15:54:05;;;;;;;3.33;1.50;;;10.10;99.90;;;;;;20920418;28;20209;-66
2023/01/04 16:04:06;;;;;;;2.90;2.30;;;10.00;99.90;;;;;;20920706;28;20472;-73
2023/01/04 16:14:08;;;;;;;3.13;1.77;;;10.10;99.90;;;;;;20920416;28;20568;-77
2023/01/04 16:24:10;;;;;;;1.63;1.40;;;10.30;99.90;;;;;;20917358;28;20571;-67
2023/01/04 16:34:32;;;;;;;2.33;1.80;;;10.20;99.90;;;;;;20916362;28;20255;-68
2023/01/04 16:44:34;;;;;;;3.47;2.40;;;10.20;99.90;;;;;;20915660;28;20279;-69
2023/01/04 16:54:36;;;;;;;2.57;1.70;;;10.20;99.90;;;;;;20918895;28;20697;-75
2023/01/04 17:04:38;;;;;;;18.03;11.80;;;10.20;99.90;;;;;;20915949;28;20289;-75
2023/01/04 17:14:39;;;;;;;2.87;2.10;;;10.30;99.90;;;;;;20916310;28;20263;-79
2023/01/04 17:24:41;;;;;;;2.77;1.50;;;10.40;99.90;;;;;;20914262;28;20290;-75
2023/01/04 17:34:43;;;;;;;1.60;1.50;;;10.40;99.90;;;;;;20914071;28;20290;-77
2023/01/04 17:44:46;;;;;;;2.87;1.50;;;10.50;99.90;;;;;;20912612;28;20347;-74
2023/01/04 17:54:49;;;;;;;2.00;1.40;;;10.60;99.90;;;;;;20912912;28;20205;-79
2023/01/04 18:04:51;;;;;;;1.90;1.70;;;10.60;99.90;;;;;;20912360;28;20245;-71
2023/01/04 18:14:53;;;;;;;1.40;1.30;;;10.70;99.90;;;;;;20912906;28;20201;-70
2023/01/04 18:24:55;;;;;;;1.87;1.47;;;10.80;99.90;;;;;;20928729;28;20248;-73
2023/01/04 18:34:56;;;;;;;2.17;1.60;;;10.90;99.90;;;;;;20928255;28;20226;-71
2023/01/04 18:44:58;;;;;;;3.43;1.60;;;10.90;99.90;;;;;;20926338;28;20234;-76
2023/01/04 18:55:00;;;;;;;3.10;1.50;;;11.00;99.90;;;;;;20927512;28;20209;-72
2023/01/04 19:05:02;;;;;;;1.47;1.30;;;11.10;99.90;;;;;;20925875;28;20241;-71
2023/01/04 19:15:05;;;;;;;1.13;1.03;;;11.20;99.90;;;;;;20925834;28;20202;-79
2023/01/04 19:25:07;;;;;;;1.90;1.10;;;11.20;99.90;;;;;;20924721;28;20721;-81
2023/01/04 19:35:09;;;;;;;1.27;1.13;;;11.30;99.90;;;;;;20923533;28;20241;-82
2023/01/04 19:45:10;;;;;;;1.20;1.07;;;11.40;99.90;;;;;;20923616;28;20301;-75
2023/01/04 19:55:12;;;;;;;1.60;1.20;;;11.50;99.90;;;;;;20922774;28;20218;-80
2023/01/04 20:05:14;;;;;;;1.20;1.10;;;11.50;99.90;;;;;;20921587;28;20242;-81
2023/01/04 20:15:16;;;;;;;1.13;1.00;;;11.60;99.90;;;;;;20922179;28;20210;-84
2023/01/04 20:25:17;;;;;;;2.00;1.00;;;11.60;99.90;;;;;;20920834;28;20231;-79
2023/01/04 20:35:19;;;;;;;1.10;1.00;;;11.70;99.90;;;;;;20919124;28;20241;-81
2023/01/04 20:45:21;;;;;;;1.53;0.87;;;11.70;99.90;;;;;;20916059;28;20230;-86
2023/01/04 20:55:23;;;;;;;1.03;0.93;;;11.70;99.90;;;;;;20916227;28;20715;-81
2023/01/04 21:05:24;;;;;;;1.40;1.10;;;11.60;99.90;;;;;;20918798;28;20242;-76
2023/01/04 21:15:29;;;;;;;1.40;1.10;;;11.50;99.90;;;;;;20915863;28;20207;-82
2023/01/04 21:25:30;;;;;;;1.30;1.20;;;11.60;99.90;;;;;;20912284;28;20242;-79
2023/01/04 21:35:32;;;;;;;1.20;1.10;;;11.60;99.90;;;;;;20909062;28;20489;-72
2023/01/04 21:45:38;;;;;;;1.40;1.17;;;11.90;99.90;;;;;;20911990;28;20302;-81
2023/01/04 21:55:40;;;;;;;1.10;1.00;;;11.70;99.90;;;;;;20910232;28;20208;-73
2023/01/04 22:05:42;;;;;;;1.10;0.80;;;11.60;99.90;;;;;;20910014;28;20232;-75
2023/01/04 22:15:43;;;;;;;0.80;0.80;;;11.70;99.90;;;;;;20910215;28;20211;-76
2023/01/04 22:25:45;;;;;;;0.80;0.80;;;11.60;99.90;;;;;;20913230;28;20279;-79
2023/01/04 22:35:47;;;;;;;1.17;1.07;;;11.70;99.90;;;;;;20910408;28;20288;-77
2023/01/04 22:45:48;;;;;;;2.10;0.90;;;11.80;99.90;;;;;;20908106;28;20703;-80
2023/01/04 22:55:50;;;;;;;1.13;1.03;;;11.80;99.90;;;;;;20908412;28;20651;-78
2023/01/04 23:06:12;;;;;;;1.10;1.00;;;11.90;99.90;;;;;;20915840;28;20279;-79
2023/01/04 23:16:15;;;;;;;1.50;1.10;;;11.80;99.90;;;;;;20922738;28;20209;-76
2023/01/04 23:26:19;;;;;;;1.60;1.40;;;11.80;99.90;;;;;;20920988;28;20240;-79
2023/01/04 23:36:24;;;;;;;1.47;1.17;;;11.80;99.90;;;;;;20921091;28;20235;-78
2023/01/04 23:46:26;;;;;;;1.87;1.20;;;11.70;99.90;;;;;;20920685;28;20698;-79
2023/01/04 23:56:29;;;;;;;2.40;0.90;;;11.60;99.90;;;;;;20920183;28;20205;-79
